createdAt,value
2023-01-26T00:01:38.684Z,99.00
2023-01-26T00:06:40.560Z,99.20
2023-01-26T00:11:42.767Z,98.90
2023-01-26T00:16:44.672Z,98.90
2023-01-26T00:21:46.523Z,98.90
2023-01-26T00:26:48.351Z,98.90
2023-01-26T00:31:50.281Z,98.90
2023-01-26T00:36:52.189Z,98.80
2023-01-26T00:42:13.974Z,98.90
2023-01-26T00:47:18.076Z,98.90
2023-01-26T00:52:19.991Z,98.90
2023-01-26T00:57:21.860Z,98.90
2023-01-26T01:02:23.717Z,98.90
2023-01-26T01:07:25.639Z,98.80
2023-01-26T01:12:28.237Z,98.90
2023-01-26T01:17:30.049Z,99.20
2023-01-26T01:22:33.168Z,99.00
2023-01-26T01:27:35.033Z,98.90
2023-01-26T01:32:37.113Z,98.90
2023-01-26T01:37:39.005Z,99.00
2023-01-26T01:42:47.435Z,99.00
2023-01-26T01:47:49.299Z,98.90
2023-01-26T01:52:54.104Z,98.90
2023-01-26T01:58:00.554Z,99.00
2023-01-26T02:03:19.327Z,98.90
2023-01-26T02:08:27.592Z,98.90
2023-01-26T02:13:31.694Z,98.90
2023-01-26T02:18:33.693Z,98.90
2023-01-26T02:24:06.794Z,98.90
2023-01-26T02:29:11.696Z,99.00
2023-01-26T02:34:17.377Z,98.90
2023-01-26T02:39:43.299Z,99.00
2023-01-26T02:44:45.280Z,99.00
2023-01-26T02:49:47.474Z,99.00
2023-01-26T02:55:09.109Z,99.00
2023-01-26T03:00:15.582Z,99.00
2023-01-26T03:05:17.538Z,99.00
2023-01-26T03:10:19.655Z,98.90
2023-01-26T03:15:40.003Z,98.80
2023-01-26T03:21:00.363Z,98.80
2023-01-26T03:26:21.136Z,98.80
2023-01-26T03:31:23.143Z,98.80
2023-01-26T03:36:25.030Z,98.70
2023-01-26T03:41:45.639Z,98.70
2023-01-26T03:47:06.078Z,98.70
2023-01-26T03:52:27.795Z,98.60
2023-01-26T03:57:29.962Z,98.60
2023-01-26T04:02:52.064Z,98.50
2023-01-26T04:08:20.715Z,98.60
2023-01-26T04:13:43.137Z,98.70
2023-01-26T04:19:08.539Z,98.50
2023-01-26T04:24:16.632Z,98.50
2023-01-26T04:29:19.608Z,98.60
2023-01-26T04:34:22.249Z,98.60
2023-01-26T04:39:24.419Z,98.60
2023-01-26T04:44:29.972Z,98.60
2023-01-26T04:49:32.758Z,98.60
2023-01-26T04:54:34.734Z,98.60
2023-01-26T04:59:37.152Z,98.60
2023-01-26T05:04:39.159Z,98.50
2023-01-26T05:09:41.222Z,98.60
2023-01-26T05:14:58.697Z,98.60
2023-01-26T05:20:27.311Z,98.60
2023-01-26T05:25:39.218Z,98.60
2023-01-26T05:30:45.455Z,98.60
2023-01-26T05:35:53.890Z,98.50
2023-01-26T05:40:56.067Z,98.60
2023-01-26T05:45:59.543Z,98.50
2023-01-26T05:51:03.954Z,98.40
2023-01-26T05:56:12.115Z,98.50
2023-01-26T06:01:19.668Z,98.50
2023-01-26T06:06:29.142Z,98.50
2023-01-26T06:11:47.144Z,98.60
2023-01-26T06:17:28.412Z,98.40
2023-01-26T06:22:34.392Z,98.40
2023-01-26T06:27:36.664Z,98.30
2023-01-26T06:32:48.069Z,98.30
2023-01-26T06:37:52.949Z,98.30
2023-01-26T06:42:56.050Z,98.30
2023-01-26T06:47:58.630Z,98.20
2023-01-26T06:53:14.009Z,98.20
2023-01-26T06:58:26.269Z,98.30
2023-01-26T07:03:50.833Z,98.10
2023-01-26T07:08:52.775Z,98.20
2023-01-26T07:13:54.655Z,98.20
2023-01-26T07:18:57.024Z,98.20
2023-01-26T07:23:58.963Z,98.10
2023-01-26T07:29:00.979Z,98.10
2023-01-26T07:34:02.788Z,98.10
2023-01-26T07:39:08.205Z,98.00
2023-01-26T07:44:10.864Z,98.00
2023-01-26T07:49:15.506Z,98.00
2023-01-26T07:54:17.273Z,98.00
2023-01-26T07:59:19.054Z,98.00
2023-01-26T08:04:20.901Z,98.00
2023-01-26T08:09:22.763Z,98.00
2023-01-26T08:14:24.897Z,98.00
2023-01-26T08:19:26.689Z,98.00
2023-01-26T08:24:28.604Z,98.00
2023-01-26T08:29:30.507Z,98.10
2023-01-26T08:34:32.495Z,98.00
2023-01-26T08:39:34.760Z,98.10
2023-01-26T08:44:36.613Z,98.00
2023-01-26T08:49:38.411Z,98.10
2023-01-26T08:54:40.229Z,98.10
2023-01-26T08:59:42.060Z,98.10
2023-01-26T09:04:43.909Z,98.20
2023-01-26T09:09:45.771Z,98.20
2023-01-26T09:14:47.643Z,98.20
2023-01-26T09:19:49.445Z,98.20
2023-01-26T09:24:51.353Z,98.20
2023-01-26T09:29:54.045Z,98.20
2023-01-26T09:34:56.219Z,98.20
2023-01-26T09:39:58.024Z,98.20
2023-01-26T09:45:12.216Z,98.30
2023-01-26T09:50:44.203Z,98.20
2023-01-26T09:55:48.489Z,98.20
2023-01-26T10:00:55.444Z,98.30
2023-01-26T10:06:22.941Z,98.30
2023-01-26T10:11:49.717Z,98.30
2023-01-26T10:16:53.805Z,98.30
2023-01-26T10:21:58.772Z,98.50
2023-01-26T10:27:00.845Z,98.30
2023-01-26T10:32:03.372Z,98.30
2023-01-26T10:37:29.741Z,98.30
2023-01-26T10:42:34.331Z,98.30
2023-01-26T10:47:36.347Z,98.30
2023-01-26T10:52:38.189Z,98.60
2023-01-26T10:57:42.795Z,98.40
2023-01-26T11:02:51.212Z,98.40
2023-01-26T11:08:02.274Z,98.40
2023-01-26T11:13:20.404Z,98.40
2023-01-26T11:18:50.263Z,98.40
2023-01-26T11:24:09.302Z,98.70
2023-01-26T11:29:11.219Z,98.40
2023-01-26T11:34:32.531Z,98.40
2023-01-26T11:40:01.817Z,98.50
2023-01-26T11:45:22.021Z,98.40
2023-01-26T11:50:36.028Z,98.40
2023-01-26T11:55:40.875Z,98.40
2023-01-26T12:01:03.210Z,98.40
2023-01-26T12:06:08.199Z,98.30
2023-01-26T12:11:46.658Z,98.40
2023-01-26T12:17:11.545Z,98.40
2023-01-26T12:22:28.409Z,98.30
2023-01-26T12:27:47.503Z,98.30
2023-01-26T12:32:49.599Z,98.30
2023-01-26T12:38:17.323Z,98.30
2023-01-26T12:43:28.929Z,98.30
2023-01-26T12:48:53.557Z,98.40
2023-01-26T12:54:00.819Z,98.30
2023-01-26T12:59:23.102Z,98.30
2023-01-26T13:04:36.392Z,98.30
2023-01-26T13:09:38.278Z,98.40
2023-01-26T13:14:43.170Z,98.30
2023-01-26T13:19:44.998Z,98.30
2023-01-26T13:24:49.165Z,98.30
2023-01-26T13:29:55.714Z,98.30
2023-01-26T13:35:02.580Z,98.20
2023-01-26T13:40:18.595Z,98.30
2023-01-26T13:45:33.940Z,98.20
2023-01-26T13:50:39.430Z,98.20
2023-01-26T13:55:42.241Z,98.20
2023-01-26T14:00:58.813Z,98.20
2023-01-26T14:06:09.143Z,98.20
2023-01-26T14:11:20.317Z,98.20
2023-01-26T14:16:33.092Z,98.20
2023-01-26T14:21:50.788Z,98.10
2023-01-26T14:26:52.898Z,98.10
2023-01-26T14:31:57.941Z,98.10
2023-01-26T14:37:12.031Z,98.10
2023-01-26T14:42:20.679Z,98.10
2023-01-26T14:47:30.297Z,98.00
2023-01-26T14:52:40.423Z,97.90
2023-01-26T14:57:42.400Z,98.00
2023-01-26T15:02:47.305Z,98.00
2023-01-26T15:07:56.565Z,98.00
2023-01-26T15:13:10.084Z,97.90
2023-01-26T15:18:14.941Z,97.90
2023-01-26T15:23:22.863Z,97.90
2023-01-26T15:28:26.005Z,97.90
2023-01-26T15:33:44.330Z,98.00
2023-01-26T15:38:47.277Z,98.00
2023-01-26T15:43:49.186Z,98.00
2023-01-26T15:48:51.125Z,97.90
2023-01-26T15:53:53.024Z,97.90
2023-01-26T15:58:54.902Z,97.90
2023-01-26T16:03:56.804Z,97.90
2023-01-26T16:08:59.461Z,97.90
2023-01-26T16:14:04.276Z,97.90
2023-01-26T16:19:06.403Z,97.90
2023-01-26T16:24:10.923Z,97.90
2023-01-26T16:29:12.744Z,97.90
2023-01-26T16:34:14.653Z,97.90
2023-01-26T16:39:17.160Z,97.90
2023-01-26T16:44:19.627Z,97.80
2023-01-26T16:49:21.430Z,97.80
2023-01-26T16:54:23.262Z,97.80
2023-01-26T16:59:25.203Z,97.80
2023-01-26T17:04:27.111Z,97.80
2023-01-26T17:09:29.045Z,97.80
2023-01-26T17:14:31.039Z,97.90
2023-01-26T17:19:32.979Z,97.90
2023-01-26T17:24:34.898Z,97.80
2023-01-26T17:29:37.249Z,97.80
2023-01-26T17:34:39.331Z,97.80
2023-01-26T17:39:41.458Z,97.70
2023-01-26T17:44:43.532Z,97.80
2023-01-26T17:49:45.478Z,97.60
2023-01-26T17:54:47.484Z,97.80
2023-01-26T17:59:50.056Z,97.70
2023-01-26T18:04:52.068Z,97.80
2023-01-26T18:09:54.195Z,97.70
2023-01-26T18:14:56.505Z,97.70
2023-01-26T18:20:01.819Z,97.70
2023-01-26T18:25:04.285Z,97.90
2023-01-26T18:30:07.094Z,97.80
2023-01-26T18:35:17.514Z,97.60
2023-01-26T18:40:19.812Z,97.60
2023-01-26T18:45:22.489Z,97.60
2023-01-26T18:50:24.475Z,97.60
2023-01-26T18:56:22.749Z,97.60
2023-01-26T19:01:26.062Z,97.70
2023-01-26T19:06:29.266Z,97.50
2023-01-26T19:11:34.313Z,97.60
2023-01-26T19:16:37.342Z,97.60
2023-01-26T19:21:39.549Z,97.50
2023-01-26T19:26:42.180Z,97.40
2023-01-26T19:31:44.410Z,97.50
2023-01-26T19:36:47.044Z,97.50
2023-01-26T19:41:50.370Z,97.50
2023-01-26T19:46:55.107Z,97.50
2023-01-26T19:51:57.219Z,97.60
2023-01-26T19:57:00.684Z,97.50
2023-01-26T20:02:02.780Z,97.40
2023-01-26T20:07:06.810Z,97.40
2023-01-26T20:12:11.173Z,97.40
2023-01-26T20:17:13.569Z,97.40
2023-01-26T20:22:15.676Z,97.30
2023-01-26T20:27:17.762Z,97.30
2023-01-26T20:32:20.316Z,97.30
2023-01-26T20:37:22.285Z,97.30
2023-01-26T20:42:24.873Z,97.40
2023-01-26T20:47:27.156Z,97.20
2023-01-26T20:52:30.207Z,97.30
2023-01-26T20:57:32.751Z,97.30
2023-01-26T21:02:35.092Z,97.30
2023-01-26T21:07:37.479Z,97.20
2023-01-26T21:12:39.657Z,97.20
2023-01-26T21:17:42.000Z,97.20
2023-01-26T21:22:44.235Z,97.30
2023-01-26T21:27:46.435Z,97.20
2023-01-26T21:32:48.506Z,97.20
2023-01-26T21:37:50.682Z,97.20
2023-01-26T21:42:53.146Z,97.20
2023-01-26T21:48:13.811Z,97.10
2023-01-26T21:53:16.017Z,97.20
2023-01-26T21:58:36.829Z,97.20
2023-01-26T22:03:38.844Z,97.30
2023-01-26T22:08:40.964Z,97.30
2023-01-26T22:13:44.261Z,97.30
2023-01-26T22:18:47.838Z,97.30
2023-01-26T22:23:50.650Z,97.30
2023-01-26T22:28:55.133Z,97.20
2023-01-26T22:33:59.079Z,97.30
2023-01-26T22:39:01.348Z,97.20
2023-01-26T22:44:03.815Z,97.20
2023-01-26T22:49:06.363Z,97.20
2023-01-26T22:54:08.618Z,97.10
2023-01-26T22:59:10.763Z,97.10
2023-01-26T23:04:12.777Z,97.00
2023-01-26T23:09:15.276Z,97.10
2023-01-26T23:14:36.497Z,97.10
2023-01-26T23:19:38.663Z,97.10
2023-01-26T23:24:40.775Z,97.10
2023-01-26T23:29:42.896Z,97.10
2023-01-26T23:34:44.907Z,97.20
2023-01-26T23:39:47.107Z,97.20
2023-01-26T23:44:52.077Z,97.20
2023-01-26T23:49:54.256Z,97.10
2023-01-26T23:54:56.650Z,97.10
2023-01-26T23:59:58.928Z,97.10
